MOL Partner — 3EBZ5 — position and weather

sailwx.info

Track history (hours):
 
Tides and Currents Weather Stations Pressure Air Temp Water Temp Dewpoint Dewpoint Depression Visibility Wind Speed Wind Dir Waves Ship Positions

MOL Partner

Last reported at 2014-Jul-28 07:29 UTC. Time now 2014-Jul-28 08:27 UTC.
Position N 32°07' W 081°08'.

Length 293 m; draft 12.2 m.

Type: Ship (hazmat cat D). MMSI: 371303000.

Date/timePositionNaut miles runAvg speedWind from/ knotsBaromVisibWave heightAir tempDewpointWater temp
2014-Jul-28 07:29N 32°07' W 081°08'0 0.0
2014-Jul-28 06:32N 32°07' W 081°08'0 0.0
2014-Jul-28 05:32N 32°07' W 081°08'0 0.0
2014-Jul-28 04:32N 32°07' W 081°08'0 0.0
2014-Jul-28 03:32N 32°07' W 081°08'0 0.0
2014-Jul-28 02:32N 32°07' W 081°08'0 0.0
2014-Jul-28 01:32N 32°07' W 081°08'0 0.0
2014-Jul-28 00:32N 32°07' W 081°08'0 0.0
2014-Jul-27 23:08N 32°07' W 081°08'0 0.0
2014-Jul-27 21:32N 32°07' W 081°08'0 0.0
2014-Jul-27 20:14N 32°07' W 081°08'0 0.0
2014-Jul-27 18:14N 32°07' W 081°08'0 0.0
2014-Jul-27 15:29N 32°07' W 081°08'0 0.0
2014-Jul-27 14:31N 32°07' W 081°08'0 0.0
2014-Jul-27 13:32N 32°07' W 081°08'0 0.0
2014-Jul-27 12:32N 32°07' W 081°08'0 0.0
2014-Jul-27 11:32N 32°07' W 081°08'4 4.0
2014-Jul-27 10:33N 32°05' W 081°05'6 6.4
2014-Jul-27 09:33N 32°04' W 080°57'10 9.8
2014-Jul-27 08:33N 31°60' W 080°47'1010.4
2014-Jul-27 07:33N 31°56' W 080°35'26919.1
2014-Jul-26 17:28N 34°21' W 076°04'14616.2
2014-Jul-26 08:27N 36°46' W 075°43'1516.9
2014-Jul-26 07:33N 36°56' W 075°58'1515.3
2014-Jul-26 06:33N 37°00' W 076°16'7 3.0
2014-Jul-26 04:22N 36°54' W 076°20'0 0.0
2014-Jul-26 01:31N 36°54' W 076°20'0 0.0
2014-Jul-25 19:28N 36°54' W 076°20'0 0.0
2014-Jul-25 14:22N 36°54' W 076°20'0 0.0
2014-Jul-25 12:04N 36°54' W 076°20'0 0.0
2014-Jul-25 11:16N 36°54' W 076°20'0 0.0
2014-Jul-25 10:31N 36°54' W 076°20'2 2.3
2014-Jul-25 09:33N 36°57' W 076°20'1211.4
2014-Jul-25 08:31N 36°58' W 076°06'1111.3
2014-Jul-25 07:33N 36°54' W 075°53'27215.6
2014-Jul-24 14:12N 37°53' W 070°20'  
2014-Jul-20 00:26N 40°49' W 030°02'1517.4
2014-Jul-19 23:33N 40°46' W 029°42'3917.9
2014-Jul-19 21:23N 40°38' W 028°52'3917.3
2014-Jul-19 19:08N 40°30' W 028°02'4517.3
2014-Jul-19 16:32N 40°21' W 027°04'1917.5
2014-Jul-19 15:26N 40°17' W 026°39'15417.3
2014-Jul-19 06:32N 39°45' W 023°23'1717.3
2014-Jul-19 05:33N 39°42' W 023°01'  
Track history (hours):
 
Tides and Currents Weather Stations Pressure Air Temp Water Temp Dewpoint Dewpoint Depression Visibility Wind Speed Wind Dir Waves Ship Positions

MOL Partner

Last reported at 2014-Jul-28 07:29 UTC. Time now 2014-Jul-28 08:27 UTC.
Position N 32°07' W 081°08'.

Length 293 m; draft 12.2 m.

Type: Ship (hazmat cat D). MMSI: 371303000.

Date/timePositionNaut miles runAvg speedWind from/ knotsBaromVisibWave heightAir tempDewpointWater temp
2014-Jul-28 07:29N 32°07' W 081°08'0 0.0
2014-Jul-28 06:32N 32°07' W 081°08'0 0.0
2014-Jul-28 05:32N 32°07' W 081°08'0 0.0
2014-Jul-28 04:32N 32°07' W 081°08'0 0.0
2014-Jul-28 03:32N 32°07' W 081°08'0 0.0
2014-Jul-28 02:32N 32°07' W 081°08'0 0.0
2014-Jul-28 01:32N 32°07' W 081°08'0 0.0
2014-Jul-28 00:32N 32°07' W 081°08'0 0.0
2014-Jul-27 23:08N 32°07' W 081°08'0 0.0
2014-Jul-27 21:32N 32°07' W 081°08'0 0.0
2014-Jul-27 20:14N 32°07' W 081°08'0 0.0
2014-Jul-27 18:14N 32°07' W 081°08'0 0.0
2014-Jul-27 15:29N 32°07' W 081°08'0 0.0
2014-Jul-27 14:31N 32°07' W 081°08'0 0.0
2014-Jul-27 13:32N 32°07' W 081°08'0 0.0
2014-Jul-27 12:32N 32°07' W 081°08'0 0.0
2014-Jul-27 11:32N 32°07' W 081°08'4 4.0
2014-Jul-27 10:33N 32°05' W 081°05'6 6.4
2014-Jul-27 09:33N 32°04' W 080°57'10 9.8
2014-Jul-27 08:33N 31°60' W 080°47'1010.4
2014-Jul-27 07:33N 31°56' W 080°35'26919.1
2014-Jul-26 17:28N 34°21' W 076°04'14616.2
2014-Jul-26 08:27N 36°46' W 075°43'1516.9
2014-Jul-26 07:33N 36°56' W 075°58'1515.3
2014-Jul-26 06:33N 37°00' W 076°16'7 3.0
2014-Jul-26 04:22N 36°54' W 076°20'0 0.0
2014-Jul-26 01:31N 36°54' W 076°20'0 0.0
2014-Jul-25 19:28N 36°54' W 076°20'0 0.0
2014-Jul-25 14:22N 36°54' W 076°20'0 0.0
2014-Jul-25 12:04N 36°54' W 076°20'0 0.0
2014-Jul-25 11:16N 36°54' W 076°20'0 0.0
2014-Jul-25 10:31N 36°54' W 076°20'2 2.3
2014-Jul-25 09:33N 36°57' W 076°20'1211.4
2014-Jul-25 08:31N 36°58' W 076°06'1111.3
2014-Jul-25 07:33N 36°54' W 075°53'27215.6
2014-Jul-24 14:12N 37°53' W 070°20'  
2014-Jul-20 00:26N 40°49' W 030°02'1517.4
2014-Jul-19 23:33N 40°46' W 029°42'3917.9
2014-Jul-19 21:23N 40°38' W 028°52'3917.3
2014-Jul-19 19:08N 40°30' W 028°02'4517.3
2014-Jul-19 16:32N 40°21' W 027°04'1917.5
2014-Jul-19 15:26N 40°17' W 026°39'15417.3
2014-Jul-19 06:32N 39°45' W 023°23'1717.3
2014-Jul-19 05:33N 39°42' W 023°01'  

Dump ship's entire track history